Time;durP1;ratioP1;P1;durP2;ratioP2;P2;SDS_P1;SDS_P2;PMS_P1;PMS_P2;Temp;Humidity;BMP_temperature;BMP_pressure;BME280_temperature;BME280_humidity;BME280_pressure;Samples;Min_cycle;Max_cycle;Signal;HPM_P1;HPM_P2
2023/10/02 00:01:23;;;;;;;16.40;8.45;;;17.80;99.90;;;;;;5091055;28;20056;-66
2023/10/02 00:04:16;;;;;;;19.27;9.02;;;17.70;99.90;;;;;;5090158;28;20054;-67
2023/10/02 00:06:39;;;;;;;14.65;8.05;;;17.70;99.90;;;;;;5090549;28;20051;-67
2023/10/02 00:09:06;;;;;;;19.60;8.77;;;17.60;99.90;;;;;;5086678;28;20109;-66
2023/10/02 00:11:36;;;;;;;16.67;9.18;;;17.60;99.90;;;;;;5090063;28;20051;-66
2023/10/02 00:14:21;;;;;;;15.57;8.63;;;17.50;99.90;;;;;;5090730;28;20051;-67
2023/10/02 00:16:59;;;;;;;19.55;9.45;;;17.50;99.90;;;;;;5090469;28;20487;-67
2023/10/02 00:19:30;;;;;;;15.23;8.70;;;17.40;99.90;;;;;;5089649;28;20040;-67
2023/10/02 00:22:04;;;;;;;18.02;9.57;;;17.40;99.90;;;;;;5090508;28;20109;-66
2023/10/02 00:24:33;;;;;;;17.95;9.02;;;17.40;99.90;;;;;;5108440;28;20054;-67
2023/10/02 00:27:02;;;;;;;22.60;9.70;;;17.40;99.90;;;;;;5089956;28;20495;-67
2023/10/02 00:29:29;;;;;;;24.58;10.32;;;17.40;99.90;;;;;;5090307;28;20074;-67
2023/10/02 00:31:57;;;;;;;19.92;9.45;;;17.40;99.90;;;;;;5076897;28;20052;-68
2023/10/02 00:34:35;;;;;;;19.10;10.02;;;17.40;99.90;;;;;;5072572;28;20048;-68
2023/10/02 00:37:06;;;;;;;18.15;9.63;;;17.40;99.90;;;;;;5076734;28;20147;-68
2023/10/02 00:39:35;;;;;;;24.52;10.70;;;17.40;99.90;;;;;;5075885;28;20048;-67
2023/10/02 00:42:24;;;;;;;16.10;9.13;;;17.40;99.90;;;;;;5076381;28;20135;-67
2023/10/02 00:44:52;;;;;;;21.40;9.98;;;17.40;99.90;;;;;;5076480;28;20044;-68
2023/10/02 00:47:38;;;;;;;22.08;10.40;;;17.40;99.90;;;;;;5075927;28;20467;-68
2023/10/02 00:50:20;;;;;;;20.45;10.20;;;17.40;99.90;;;;;;5074522;28;20044;-67
2023/10/02 00:53:06;;;;;;;20.42;10.35;;;17.30;99.90;;;;;;5094171;28;20438;-68
2023/10/02 00:55:34;;;;;;;23.52;10.95;;;17.30;99.90;;;;;;5076570;28;20105;-68
2023/10/02 00:58:03;;;;;;;22.48;10.25;;;17.30;99.90;;;;;;5072231;28;20056;-67
2023/10/02 01:00:35;;;;;;;21.63;10.45;;;17.20;99.90;;;;;;5075394;28;20072;-67
2023/10/02 01:03:04;;;;;;;20.80;11.10;;;17.10;99.90;;;;;;5076418;28;20125;-68
2023/10/02 01:05:42;;;;;;;20.08;11.18;;;17.10;99.90;;;;;;5076285;28;20056;-67
2023/10/02 01:08:24;;;;;;;26.17;11.70;;;17.00;99.90;;;;;;5075466;28;20526;-67
2023/10/02 01:10:59;;;;;;;22.98;11.18;;;16.90;99.90;;;;;;5074475;28;20086;-67
2023/10/02 01:13:30;;;;;;;18.65;10.85;;;16.90;99.90;;;;;;5076177;28;20135;-68
2023/10/02 01:15:59;;;;;;;21.95;11.68;;;16.80;99.90;;;;;;5075347;28;20094;-68
2023/10/02 01:18:28;;;;;;;24.27;11.68;;;16.80;99.90;;;;;;5075754;28;20052;-67
2023/10/02 01:20:56;;;;;;;29.55;11.52;;;16.80;99.90;;;;;;5075621;28;20036;-67
2023/10/02 01:23:26;;;;;;;21.52;10.98;;;16.70;99.90;;;;;;5075113;28;20044;-67
2023/10/02 01:26:00;;;;;;;25.85;11.85;;;16.80;99.90;;;;;;5093684;28;20048;-67
2023/10/02 01:28:32;;;;;;;22.48;11.10;;;16.80;99.90;;;;;;5075231;28;20102;-67
2023/10/02 01:31:31;;;;;;;21.08;11.43;;;16.70;99.90;;;;;;5075484;28;20044;-68
2023/10/02 01:33:46;;;;;;;21.63;11.95;;;16.80;99.90;;;;;;5075416;28;20102;-68
2023/10/02 01:36:13;;;;;;;21.88;11.77;;;16.80;99.90;;;;;;5074967;28;20511;-68
2023/10/02 01:38:44;;;;;;;22.90;11.43;;;16.80;99.90;;;;;;5075343;28;20048;-68
2023/10/02 01:41:12;;;;;;;19.23;10.90;;;16.80;99.90;;;;;;5075230;28;20408;-68
2023/10/02 01:43:43;;;;;;;23.10;11.48;;;16.80;99.90;;;;;;5073771;28;20040;-67
2023/10/02 01:46:10;;;;;;;25.40;12.07;;;16.80;99.90;;;;;;5075397;28;20052;-67
2023/10/02 01:48:40;;;;;;;20.25;11.75;;;16.80;99.90;;;;;;5075404;28;20051;-67
2023/10/02 01:51:25;;;;;;;22.67;12.18;;;16.80;99.90;;;;;;5074499;28;20124;-68
2023/10/02 01:53:54;;;;;;;24.05;11.85;;;16.80;99.90;;;;;;5075348;28;20135;-67
2023/10/02 01:56:24;;;;;;;22.95;11.82;;;16.70;99.90;;;;;;5074443;28;20529;-67
2023/10/02 01:58:52;;;;;;;20.77;11.13;;;16.80;99.90;;;;;;5093142;28;20393;-67
2023/10/02 02:01:21;;;;;;;24.85;12.13;;;16.80;99.90;;;;;;5074711;28;20052;-67
2023/10/02 02:03:50;;;;;;;22.15;11.85;;;16.80;99.90;;;;;;5074611;28;20071;-67
2023/10/02 02:06:20;;;;;;;22.15;11.68;;;16.70;99.90;;;;;;5074945;28;20047;-67
2023/10/02 02:08:53;;;;;;;20.58;11.82;;;16.80;99.90;;;;;;5075137;28;20377;-67
2023/10/02 02:11:23;;;;;;;24.23;12.25;;;16.80;99.90;;;;;;5074393;28;20047;-67
2023/10/02 02:13:51;;;;;;;23.75;13.20;;;16.70;99.90;;;;;;5075088;28;20059;-67
2023/10/02 02:16:22;;;;;;;22.98;12.25;;;16.70;99.90;;;;;;5092639;28;20036;-66
2023/10/02 02:18:53;;;;;;;23.63;12.70;;;16.70;99.90;;;;;;5074075;28;20080;-67
2023/10/02 02:21:23;;;;;;;20.52;11.40;;;16.70;99.90;;;;;;5074297;28;20545;-67
2023/10/02 02:24:03;;;;;;;22.85;11.85;;;16.60;99.90;;;;;;5092901;28;20047;-67
2023/10/02 02:26:33;;;;;;;20.80;12.18;;;16.60;99.90;;;;;;5074065;28;20458;-68
2023/10/02 02:29:01;;;;;;;20.98;11.85;;;16.50;99.90;;;;;;5074671;28;20052;-67
2023/10/02 02:31:32;;;;;;;24.40;12.52;;;16.50;99.90;;;;;;5092184;28;20458;-67
2023/10/02 02:34:01;;;;;;;20.52;11.75;;;16.30;99.90;;;;;;5074651;28;20048;-67
2023/10/02 02:36:34;;;;;;;21.85;12.50;;;16.40;99.90;;;;;;5074354;28;20048;-68
2023/10/02 02:39:17;;;;;;;24.52;13.18;;;16.30;99.90;;;;;;5074094;28;20044;-68
2023/10/02 02:42:08;;;;;;;23.20;12.82;;;16.20;99.90;;;;;;5074390;28;20423;-68
2023/10/02 02:44:45;;;;;;;24.60;13.00;;;16.20;99.90;;;;;;5074133;28;20043;-67
2023/10/02 02:47:12;;;;;;;22.95;12.55;;;16.20;99.90;;;;;;5073446;28;20044;-67
2023/10/02 02:49:50;;;;;;;22.77;13.70;;;16.20;99.90;;;;;;5074232;28;20085;-67
2023/10/02 02:52:19;;;;;;;24.85;12.93;;;16.20;99.90;;;;;;5074237;28;20044;-67
2023/10/02 02:54:47;;;;;;;26.85;13.38;;;16.20;99.90;;;;;;5073470;28;20440;-67
2023/10/02 02:57:18;;;;;;;23.88;13.32;;;16.30;99.90;;;;;;5074035;28;20078;-67
2023/10/02 02:59:46;;;;;;;20.67;12.63;;;16.20;99.90;;;;;;5073568;28;20044;-68
2023/10/02 03:02:21;;;;;;;23.95;13.00;;;16.30;99.90;;;;;;5092017;28;20048;-68
2023/10/02 03:04:50;;;;;;;25.48;12.68;;;16.20;99.90;;;;;;5092128;28;20032;-68
2023/10/02 03:07:29;;;;;;;24.13;12.85;;;16.20;99.90;;;;;;5073456;28;20048;-68
2023/10/02 03:09:59;;;;;;;20.58;12.40;;;16.20;99.90;;;;;;5074112;28;20068;-67
2023/10/02 03:12:28;;;;;;;22.88;11.98;;;16.30;99.90;;;;;;5073840;28;20066;-67
2023/10/02 03:14:56;;;;;;;20.98;13.20;;;16.20;99.90;;;;;;5073592;28;20132;-66
2023/10/02 03:17:31;;;;;;;24.05;13.50;;;16.20;99.90;;;;;;5091971;28;20109;-67
2023/10/02 03:20:00;;;;;;;23.38;12.93;;;16.20;99.90;;;;;;5059078;28;20056;-67
2023/10/02 03:22:33;;;;;;;25.15;13.10;;;16.20;99.90;;;;;;5053003;28;20089;-67
2023/10/02 03:25:25;;;;;;;23.88;12.98;;;16.20;99.90;;;;;;5053846;28;20145;-67
2023/10/02 03:27:50;;;;;;;25.40;13.60;;;16.20;99.90;;;;;;5052856;28;20536;-67
2023/10/02 03:30:35;;;;;;;24.05;13.32;;;16.10;99.90;;;;;;5067423;28;20059;-67
2023/10/02 03:33:03;;;;;;;27.58;14.35;;;16.10;99.90;;;;;;5053676;28;20058;-67
2023/10/02 03:35:38;;;;;;;28.33;13.90;;;16.00;99.90;;;;;;5053404;28;20102;-66
2023/10/02 03:38:05;;;;;;;26.27;15.13;;;16.00;99.90;;;;;;5053917;28;20048;-67
2023/10/02 03:40:32;;;;;;;21.17;12.27;;;16.00;99.90;;;;;;5071610;28;20040;-67
2023/10/02 03:43:18;;;;;;;25.83;13.23;;;15.90;99.90;;;;;;5053218;28;20056;-67
2023/10/02 03:45:46;;;;;;;28.17;13.95;;;15.90;99.90;;;;;;5053827;28;20122;-67
2023/10/02 03:48:15;;;;;;;24.30;13.75;;;15.90;99.90;;;;;;5053420;28;20131;-67
2023/10/02 03:50:41;;;;;;;26.23;13.52;;;15.80;99.90;;;;;;5053235;28;20045;-67
2023/10/02 03:53:28;;;;;;;23.50;13.63;;;15.80;99.90;;;;;;5053522;28;20131;-67
2023/10/02 03:55:59;;;;;;;26.65;14.27;;;15.80;99.90;;;;;;5053056;28;20044;-66
2023/10/02 03:58:38;;;;;;;24.52;13.82;;;15.80;99.90;;;;;;5053608;28;20048;-67
2023/10/02 04:01:08;;;;;;;24.00;13.98;;;15.80;99.90;;;;;;5053441;28;20113;-67
2023/10/02 04:03:52;;;;;;;23.15;13.52;;;15.80;99.90;;;;;;5070748;28;20055;-67
2023/10/02 04:06:33;;;;;;;25.02;13.00;;;15.80;99.90;;;;;;5055596;28;20063;-67
2023/10/02 04:09:09;;;;;;;28.92;14.75;;;15.80;99.90;;;;;;5057045;28;20139;-66
2023/10/02 04:11:39;;;;;;;26.88;14.15;;;15.80;99.90;;;;;;5056748;28;20431;-66
2023/10/02 04:14:17;;;;;;;24.15;13.70;;;15.80;99.90;;;;;;5057266;28;20056;-67
2023/10/02 04:16:48;;;;;;;25.25;13.80;;;15.90;99.90;;;;;;5056026;28;20053;-67
2023/10/02 04:19:15;;;;;;;26.02;14.60;;;15.80;99.90;;;;;;5065059;28;20044;-67
2023/10/02 04:21:45;;;;;;;25.77;13.60;;;15.80;99.90;;;;;;5076985;28;20040;-67
2023/10/02 04:24:12;;;;;;;24.40;14.77;;;15.80;99.90;;;;;;5076519;28;20060;-67
2023/10/02 04:26:41;;;;;;;25.50;14.05;;;15.80;99.90;;;;;;5077014;28;20044;-67
2023/10/02 04:29:25;;;;;;;29.75;14.60;;;15.80;99.90;;;;;;5095024;28;20055;-67
2023/10/02 04:32:11;;;;;;;23.95;13.77;;;15.80;99.90;;;;;;5076544;28;20043;-67
2023/10/02 04:34:46;;;;;;;25.33;14.23;;;15.80;99.90;;;;;;5076911;28;20063;-67
2023/10/02 04:37:19;;;;;;;25.73;13.65;;;15.90;99.90;;;;;;5076864;28;20052;-66
2023/10/02 04:39:54;;;;;;;26.60;15.45;;;15.80;99.90;;;;;;5075714;28;20507;-67
2023/10/02 04:42:24;;;;;;;33.13;14.98;;;15.90;99.90;;;;;;5076623;28;20058;-66
2023/10/02 04:44:56;;;;;;;26.77;14.18;;;15.90;99.90;;;;;;5076735;28;20040;-67
2023/10/02 04:47:26;;;;;;;24.25;14.65;;;15.90;99.90;;;;;;5076012;28;20059;-67
2023/10/02 04:52:56;;;;;;;27.08;14.98;;;16.00;99.90;;;;;;5041900;28;20483;-66
2023/10/02 04:55:25;;;;;;;30.17;14.73;;;15.90;99.90;;;;;;5076555;28;20048;-66
2023/10/02 04:57:54;;;;;;;26.42;14.95;;;15.90;99.90;;;;;;5076352;28;20094;-66
2023/10/02 05:00:33;;;;;;;26.30;14.07;;;15.90;99.90;;;;;;5093645;28;20135;-67
2023/10/02 05:03:17;;;;;;;25.30;14.15;;;16.00;99.90;;;;;;5076287;28;20130;-66
2023/10/02 05:05:49;;;;;;;24.35;14.73;;;15.90;99.90;;;;;;5076108;28;20036;-67
2023/10/02 05:08:19;;;;;;;25.83;15.95;;;16.00;99.90;;;;;;5075504;28;20514;-67
2023/10/02 05:10:49;;;;;;;26.35;14.30;;;15.90;99.90;;;;;;5076316;28;20039;-67
2023/10/02 05:13:44;;;;;;;;;;;15.90;99.90;;;;;;5075921;28;20091;-67
2023/10/02 05:16:11;;;;;;;26.42;14.93;;;15.90;99.90;;;;;;5075551;28;19923;-67
2023/10/02 05:18:39;;;;;;;25.83;14.40;;;15.80;99.90;;;;;;5072242;28;20048;-66
2023/10/02 05:21:07;;;;;;;28.83;14.63;;;15.80;99.90;;;;;;5051381;28;20037;-67
2023/10/02 05:23:34;;;;;;;27.33;15.15;;;15.80;99.90;;;;;;5055550;28;20060;-67
2023/10/02 05:26:02;;;;;;;26.30;14.48;;;15.70;99.90;;;;;;5055611;28;20052;-67
2023/10/02 05:28:42;;;;;;;24.42;13.90;;;15.70;99.90;;;;;;5054584;28;20451;-67
2023/10/02 05:31:12;;;;;;;29.83;15.50;;;15.70;99.90;;;;;;5055292;28;20045;-66
2023/10/02 05:33:39;;;;;;;31.05;14.63;;;15.60;99.90;;;;;;5072877;28;20072;-66
2023/10/02 05:36:08;;;;;;;24.05;14.65;;;15.60;99.90;;;;;;5054850;28;20055;-67
2023/10/02 05:38:37;;;;;;;27.08;13.82;;;15.60;99.90;;;;;;5054737;28;20049;-68
2023/10/02 05:41:12;;;;;;;27.58;15.55;;;15.60;99.90;;;;;;5054926;28;20048;-68
2023/10/02 05:43:55;;;;;;;26.80;15.00;;;15.60;99.90;;;;;;5054891;28;20059;-68
2023/10/02 05:46:52;;;;;;;25.92;14.95;;;15.60;99.90;;;;;;5055609;28;20131;-69
2023/10/02 05:49:11;;;;;;;27.63;15.75;;;15.50;99.90;;;;;;5054341;28;20076;-68
2023/10/02 05:51:47;;;;;;;28.67;15.32;;;15.50;99.90;;;;;;5073082;28;20150;-67
2023/10/02 05:54:16;;;;;;;28.60;15.70;;;15.50;99.90;;;;;;5053399;28;20048;-66
2023/10/02 05:56:43;;;;;;;28.40;15.63;;;15.50;99.90;;;;;;5054753;28;20102;-66
2023/10/02 05:59:12;;;;;;;26.08;12.95;;;15.60;99.90;;;;;;5045453;28;20199;-67
2023/10/02 06:01:43;;;;;;;29.63;14.40;;;15.70;99.90;;;;;;5041456;28;20041;-67
2023/10/02 06:04:11;;;;;;;27.33;13.75;;;15.80;99.90;;;;;;5050185;28;20135;-66
2023/10/02 06:06:40;;;;;;;21.23;13.68;;;15.90;99.90;;;;;;5050115;28;20052;-67
2023/10/02 06:09:16;;;;;;;26.80;13.45;;;16.00;99.90;;;;;;5052277;28;20416;-68
2023/10/02 06:14:24;;;;;;;24.95;13.02;;;16.20;99.90;;;;;;5048738;28;20048;-66
2023/10/02 06:16:53;;;;;;;23.13;13.23;;;16.20;99.90;;;;;;5068155;28;20040;-67
2023/10/02 06:19:20;;;;;;;25.40;13.68;;;16.30;99.90;;;;;;5051928;28;20087;-66
2023/10/02 06:22:04;;;;;;;27.08;14.23;;;16.30;99.90;;;;;;5052726;28;20037;-66
2023/10/02 06:24:32;;;;;;;27.05;14.00;;;16.40;99.90;;;;;;5051045;28;20141;-66
2023/10/02 06:27:04;;;;;;;25.80;13.75;;;16.40;99.90;;;;;;5070030;28;20078;-67
2023/10/02 06:29:35;;;;;;;25.77;13.90;;;16.50;99.90;;;;;;5050973;28;20134;-67
2023/10/02 06:32:05;;;;;;;27.02;13.93;;;16.50;99.90;;;;;;5051266;28;20044;-66
2023/10/02 06:34:37;;;;;;;27.45;13.88;;;16.50;99.90;;;;;;5052105;28;20502;-66
2023/10/02 06:37:11;;;;;;;22.90;12.48;;;16.40;99.90;;;;;;5049534;28;20048;-66
2023/10/02 06:39:40;;;;;;;22.38;13.55;;;16.50;99.90;;;;;;5049580;28;20079;-67
2023/10/02 06:42:07;;;;;;;27.40;13.60;;;16.60;99.90;;;;;;5063499;28;20076;-66
2023/10/02 06:44:41;;;;;;;26.40;14.00;;;16.70;99.90;;;;;;5049756;28;20052;-67
2023/10/02 06:47:13;;;;;;;24.02;13.80;;;16.70;99.90;;;;;;5041333;28;20549;-66
2023/10/02 06:49:41;;;;;;;26.15;14.00;;;16.90;99.90;;;;;;5047110;28;20056;-66
2023/10/02 06:52:15;;;;;;;21.90;12.55;;;16.90;99.90;;;;;;5050748;28;20113;-66
2023/10/02 06:54:43;;;;;;;23.15;12.88;;;17.10;99.90;;;;;;5052485;28;20094;-66
2023/10/02 06:57:20;;;;;;;23.23;13.13;;;17.00;99.90;;;;;;5050994;28;20040;-66
2023/10/02 06:59:54;;;;;;;26.23;13.98;;;17.10;99.90;;;;;;5047638;28;20055;-66
2023/10/02 07:02:24;;;;;;;28.38;13.85;;;17.10;99.90;;;;;;5048326;28;20048;-66
2023/10/02 07:04:53;;;;;;;25.10;14.63;;;17.20;99.90;;;;;;5049285;28;20048;-65
2023/10/02 07:07:24;;;;;;;21.67;12.82;;;17.40;99.90;;;;;;5044242;28;20048;-66
2023/10/02 07:09:55;;;;;;;21.20;12.38;;;17.70;99.90;;;;;;5052848;28;20105;-66
2023/10/02 07:12:27;;;;;;;22.08;12.68;;;18.20;99.90;;;;;;5049789;28;20404;-67
2023/10/02 07:15:10;;;;;;;25.50;12.88;;;18.80;99.90;;;;;;5044602;28;20052;-67
2023/10/02 07:17:47;;;;;;;27.67;14.20;;;19.30;99.90;;;;;;5050257;28;20056;-66
2023/10/02 07:20:15;;;;;;;24.25;13.43;;;19.70;99.90;;;;;;5065364;28;20055;-66
2023/10/02 07:22:43;;;;;;;24.33;13.68;;;19.80;99.90;;;;;;5071535;28;20074;-66
2023/10/02 07:25:10;;;;;;;32.92;15.10;;;20.00;99.90;;;;;;5084964;28;20094;-66
2023/10/02 07:27:40;;;;;;;22.60;13.10;;;20.40;99.90;;;;;;5068007;28;20557;-65
2023/10/02 07:30:09;;;;;;;22.63;12.70;;;20.80;99.90;;;;;;5069395;28;20105;-65
2023/10/02 07:32:36;;;;;;;24.10;12.98;;;21.00;99.90;;;;;;5088166;28;20056;-66
2023/10/02 07:35:21;;;;;;;20.98;12.63;;;21.30;99.90;;;;;;5060567;28;20502;-66
2023/10/02 07:37:58;;;;;;;21.98;12.98;;;21.70;99.90;;;;;;5066164;28;20075;-66
2023/10/02 07:40:26;;;;;;;23.25;12.60;;;22.10;99.90;;;;;;5068981;28;20140;-66
2023/10/02 07:42:53;;;;;;;19.38;10.95;;;22.70;99.90;;;;;;5080918;28;20040;-66
2023/10/02 07:45:24;;;;;;;24.52;13.43;;;23.20;99.90;;;;;;5091614;28;20097;-66
2023/10/02 07:48:08;;;;;;;23.80;13.23;;;23.60;99.90;;;;;;5072977;28;20051;-66
2023/10/02 07:50:38;;;;;;;20.30;12.80;;;23.80;99.90;;;;;;5073813;28;20069;-67
2023/10/02 07:53:06;;;;;;;24.33;14.02;;;23.90;99.90;;;;;;5094440;28;20040;-67
2023/10/02 07:55:39;;;;;;;21.08;12.82;;;23.70;99.90;;;;;;5071784;28;20407;-67
2023/10/02 07:58:07;;;;;;;21.65;12.52;;;24.00;99.90;;;;;;5068418;28;20052;-66
2023/10/02 08:00:38;;;;;;;41.67;13.25;;;24.20;99.90;;;;;;5071873;28;20408;-66
2023/10/02 08:03:29;;;;;;;24.45;13.35;;;24.60;99.90;;;;;;5092443;28;20048;-66
2023/10/02 08:05:57;;;;;;;22.17;12.63;;;24.70;99.90;;;;;;5073456;28;20458;-66
2023/10/02 08:08:26;;;;;;;24.05;12.85;;;24.50;99.90;;;;;;5067491;28;20048;-66
2023/10/02 08:10:53;;;;;;;19.63;13.07;;;24.40;99.90;;;;;;5071665;28;20056;-66
2023/10/02 08:13:32;;;;;;;24.90;13.63;;;24.10;99.90;;;;;;5075227;28;20146;-67
2023/10/02 08:16:01;;;;;;;21.60;12.95;;;24.20;99.90;;;;;;5071323;28;20109;-67
2023/10/02 08:18:29;;;;;;;24.27;13.10;;;24.40;99.90;;;;;;5089481;28;20040;-67
2023/10/02 08:20:58;;;;;;;22.08;12.90;;;24.40;99.90;;;;;;5082501;28;20162;-67
2023/10/02 08:23:25;;;;;;;23.08;12.52;;;24.60;99.90;;;;;;5066840;28;20117;-67
2023/10/02 08:26:02;;;;;;;21.73;13.73;;;24.60;99.90;;;;;;5070009;28;21333;-67
2023/10/02 08:28:30;;;;;;;22.75;13.70;;;24.60;99.90;;;;;;5091260;28;20162;-67
2023/10/02 08:31:13;;;;;;;26.02;13.43;;;24.40;99.90;;;;;;5072058;28;20051;-67
2023/10/02 08:33:43;;;;;;;22.35;13.57;;;24.40;99.90;;;;;;5069001;28;20062;-67
2023/10/02 08:36:12;;;;;;;24.15;13.85;;;24.60;99.90;;;;;;5073724;28;20051;-67
2023/10/02 08:38:40;;;;;;;25.95;14.23;;;24.80;99.90;;;;;;5083326;28;20062;-65
2023/10/02 08:41:08;;;;;;;23.85;14.57;;;25.00;99.90;;;;;;5071851;28;20056;-66
2023/10/02 08:43:41;;;;;;;23.42;14.43;;;25.10;99.90;;;;;;5070495;28;20484;-66
2023/10/02 08:46:18;;;;;;;24.33;12.68;;;25.10;99.90;;;;;;5070379;28;20052;-66
2023/10/02 08:48:54;;;;;;;21.38;13.70;;;25.00;99.90;;;;;;5069034;28;20074;-66
2023/10/02 08:51:29;;;;;;;25.38;13.63;;;24.70;99.90;;;;;;5069289;28;20048;-66
2023/10/02 08:53:58;;;;;;;24.98;13.57;;;24.10;99.90;;;;;;5073838;28;20154;-66
2023/10/02 08:56:39;;;;;;;27.45;14.85;;;23.50;99.90;;;;;;5070915;28;20068;-66
2023/10/02 08:59:18;;;;;;;25.30;14.90;;;22.80;99.90;;;;;;5070209;28;20056;-66
2023/10/02 09:01:48;;;;;;;29.67;15.60;;;22.30;99.90;;;;;;5072422;28;20044;-66
2023/10/02 09:04:32;;;;;;;27.92;15.43;;;21.90;99.90;;;;;;5089575;28;20528;-66
2023/10/02 09:07:14;;;;;;;28.15;14.55;;;21.50;99.90;;;;;;5072382;28;20052;-66
2023/10/02 09:09:45;;;;;;;27.90;15.82;;;21.40;99.90;;;;;;5070278;28;20055;-66
2023/10/02 09:12:15;;;;;;;29.80;14.68;;;21.70;99.90;;;;;;5088295;28;20491;-66
2023/10/02 09:14:43;;;;;;;28.98;14.82;;;22.40;99.90;;;;;;5072441;28;20464;-66
2023/10/02 09:17:19;;;;;;;24.75;14.80;;;23.20;99.90;;;;;;5072668;28;20052;-66
2023/10/02 09:20:00;;;;;;;28.58;15.20;;;24.00;99.90;;;;;;5090554;28;20155;-65
2023/10/02 09:22:29;;;;;;;25.98;14.23;;;24.30;99.90;;;;;;5070975;28;20459;-65
2023/10/02 09:25:09;;;;;;;27.80;14.73;;;24.80;99.90;;;;;;5092467;28;20075;-65
2023/10/02 09:27:41;;;;;;;27.95;15.15;;;24.60;99.90;;;;;;5072564;28;20052;-65
2023/10/02 09:30:21;;;;;;;27.05;14.38;;;24.20;99.90;;;;;;5068252;28;20055;-66
2023/10/02 09:32:52;;;;;;;24.05;13.85;;;23.60;99.90;;;;;;5073077;28;20043;-65
2023/10/02 09:35:29;;;;;;;26.27;14.60;;;23.40;99.90;;;;;;5068713;28;20043;-66
2023/10/02 09:38:02;;;;;;;29.58;14.38;;;23.30;99.90;;;;;;5071533;28;20101;-66
2023/10/02 09:40:53;;;;;;;27.85;13.32;;;23.60;99.90;;;;;;5071705;28;20530;-65
2023/10/02 09:43:22;;;;;;;25.35;13.68;;;23.50;99.90;;;;;;5071684;28;20461;-65
2023/10/02 09:45:50;;;;;;;29.48;15.15;;;23.10;99.90;;;;;;5070506;28;20043;-65
2023/10/02 09:48:53;;;;;;;23.85;14.43;;;22.70;99.90;;;;;;5086917;28;20048;-66
2023/10/02 09:51:27;;;;;;;34.10;16.02;;;22.50;99.90;;;;;;5071355;28;20052;-66
2023/10/02 09:54:08;;;;;;;26.48;15.15;;;22.70;99.90;;;;;;5084671;28;20750;-66
2023/10/02 09:56:51;;;;;;;23.88;14.45;;;23.10;99.90;;;;;;5068930;28;20117;-66
2023/10/02 09:59:21;;;;;;;25.50;15.25;;;23.60;99.90;;;;;;5086959;28;20047;-66
2023/10/02 10:02:49;;;;;;;26.85;13.95;;;24.70;99.90;;;;;;5070015;28;20130;-66
2023/10/02 10:10:48;;;;;;;22.83;13.88;;;25.20;99.90;;;;;;5069863;28;20484;-66
2023/10/02 10:13:46;;;;;;;25.80;14.02;;;25.50;99.90;;;;;;5059857;28;20051;-66
2023/10/02 10:16:35;;;;;;;21.48;12.93;;;25.20;99.90;;;;;;5059696;28;20048;-66
2023/10/02 10:19:26;;;;;;;23.25;12.95;;;25.70;99.90;;;;;;5067516;28;20117;-66
2023/10/02 10:22:00;;;;;;;21.05;12.70;;;26.50;99.90;;;;;;5070507;28;20056;-66
2023/10/02 10:24:35;;;;;;;24.05;13.35;;;27.40;99.90;;;;;;5069896;28;20468;-66
2023/10/02 10:27:03;;;;;;;20.00;12.95;;;27.30;99.90;;;;;;5070040;28;20179;-66
2023/10/02 10:29:41;;;;;;;20.63;12.93;;;26.90;99.90;;;;;;5087811;28;20052;-66
2023/10/02 10:32:23;;;;;;;21.23;12.80;;;26.10;99.90;;;;;;5072902;28;20094;-66
2023/10/02 10:35:11;;;;;;;25.45;13.23;;;26.20;99.90;;;;;;5074405;28;20492;-66
2023/10/02 10:37:46;;;;;;;25.95;13.38;;;26.80;99.90;;;;;;5073170;28;20051;-67
2023/10/02 10:40:50;;;;;;;21.35;12.23;;;26.60;99.90;;;;;;5059682;28;20045;-67
2023/10/02 10:43:17;;;;;;;22.90;12.52;;;27.20;99.90;;;;;;5062404;28;20503;-67
2023/10/02 10:45:48;;;;;;;22.50;12.02;;;28.30;99.90;;;;;;5070584;28;21253;-67
2023/10/02 10:48:21;;;;;;;21.33;12.20;;;29.10;99.90;;;;;;5070987;28;20480;-67
2023/10/02 10:50:57;;;;;;;22.70;13.57;;;29.10;99.90;;;;;;5069696;28;20051;-67
2023/10/02 10:53:29;;;;;;;22.50;13.00;;;28.30;99.90;;;;;;5066546;28;20048;-67
2023/10/02 10:56:03;;;;;;;20.52;12.18;;;27.80;99.90;;;;;;5070115;28;20184;-65
2023/10/02 10:58:33;;;;;;;19.52;12.73;;;27.50;99.90;;;;;;5068517;28;20071;-66
2023/10/02 11:01:02;;;;;;;20.83;12.38;;;27.20;99.90;;;;;;5072956;28;20527;-67
2023/10/02 11:03:30;;;;;;;21.90;13.30;;;26.50;99.90;;;;;;5073580;28;20052;-67
2023/10/02 11:06:02;;;;;;;23.48;13.70;;;26.00;99.90;;;;;;5073660;28;20510;-67
2023/10/02 11:08:30;;;;;;;26.15;14.18;;;25.60;99.90;;;;;;5074267;28;20064;-67
2023/10/02 11:11:18;;;;;;;23.52;14.27;;;25.30;99.90;;;;;;5069712;28;20040;-67
2023/10/02 11:13:54;;;;;;;26.17;14.23;;;25.30;99.90;;;;;;5049910;28;21212;-67
2023/10/02 11:16:34;;;;;;;23.50;13.68;;;25.20;99.90;;;;;;5064390;28;20045;-67
2023/10/02 11:22:18;;;;;;;25.20;12.57;;;25.10;99.90;;;;;;5066291;28;20391;-67
2023/10/02 11:25:01;;;;;;;19.92;12.60;;;25.10;99.90;;;;;;5090335;28;20551;-67
2023/10/02 11:27:29;;;;;;;20.83;12.52;;;25.40;99.90;;;;;;5069784;28;20051;-68
2023/10/02 11:30:02;;;;;;;22.58;12.23;;;25.40;99.90;;;;;;5086244;28;20051;-67
2023/10/02 11:32:47;;;;;;;20.23;13.45;;;25.60;99.90;;;;;;5070821;28;20138;-67
2023/10/02 11:35:15;;;;;;;22.10;12.52;;;25.70;99.90;;;;;;5069824;28;20540;-67
2023/10/02 11:37:47;;;;;;;22.10;13.23;;;25.80;99.90;;;;;;5068600;28;20051;-67
2023/10/02 11:40:14;;;;;;;24.25;12.75;;;25.90;99.90;;;;;;5084397;28;20051;-66
2023/10/02 11:42:41;;;;;;;23.60;13.48;;;26.00;99.90;;;;;;5064937;28;20044;-67
2023/10/02 11:45:10;;;;;;;24.42;12.80;;;26.00;99.90;;;;;;5084995;28;20078;-67
2023/10/02 11:47:38;;;;;;;19.92;13.38;;;25.90;99.90;;;;;;5065734;28;20075;-67
2023/10/02 11:50:06;;;;;;;22.90;13.35;;;25.90;99.90;;;;;;5067068;28;20044;-67
2023/10/02 11:52:33;;;;;;;21.73;14.15;;;26.20;99.90;;;;;;5070987;28;20044;-67
2023/10/02 11:55:00;;;;;;;26.13;13.45;;;26.40;99.90;;;;;;5072381;28;20044;-67
2023/10/02 11:57:27;;;;;;;25.08;13.43;;;26.40;99.90;;;;;;5073168;28;20056;-68
2023/10/02 11:59:54;;;;;;;22.17;13.50;;;26.40;99.90;;;;;;5073491;28;20044;-68
2023/10/02 12:02:22;;;;;;;25.23;13.75;;;26.20;99.90;;;;;;5073101;28;20561;-68
2023/10/02 12:04:52;;;;;;;26.52;15.30;;;26.00;99.90;;;;;;5073548;28;20389;-67
2023/10/02 12:07:19;;;;;;;23.55;14.98;;;25.70;99.90;;;;;;5091346;28;20044;-67
2023/10/02 12:09:47;;;;;;;23.00;14.00;;;25.20;99.90;;;;;;5073042;28;20048;-68
2023/10/02 12:12:14;;;;;;;25.65;14.02;;;25.40;99.90;;;;;;5073454;28;20476;-68
2023/10/02 12:14:42;;;;;;;23.67;15.05;;;25.20;99.90;;;;;;5073154;28;20553;-67
2023/10/02 12:17:11;;;;;;;22.00;14.55;;;24.80;99.90;;;;;;5071002;28;20048;-67
2023/10/02 12:19:40;;;;;;;19.58;13.85;;;24.80;99.90;;;;;;5073149;28;20090;-66
2023/10/02 12:22:07;;;;;;;26.50;15.15;;;24.80;99.90;;;;;;5091268;28;20036;-66
2023/10/02 12:24:35;;;;;;;24.48;15.85;;;24.60;99.90;;;;;;5068673;28;20054;-68
2023/10/02 12:27:02;;;;;;;22.80;14.63;;;24.50;99.90;;;;;;5074735;28;20048;-67
2023/10/02 12:29:29;;;;;;;23.02;14.00;;;24.30;99.90;;;;;;5076580;28;20048;-67
2023/10/02 12:31:59;;;;;;;26.65;14.55;;;24.40;99.90;;;;;;5072741;28;20489;-67
2023/10/02 12:34:27;;;;;;;24.50;14.95;;;24.40;99.90;;;;;;5076510;28;20139;-67
2023/10/02 12:36:55;;;;;;;24.80;15.15;;;24.50;99.90;;;;;;5076410;28;20447;-68
2023/10/02 12:39:26;;;;;;;26.02;13.93;;;24.50;99.90;;;;;;5076820;28;20549;-68
2023/10/02 12:41:53;;;;;;;20.60;14.60;;;24.40;99.90;;;;;;5076855;28;20052;-68
2023/10/02 12:44:21;;;;;;;23.13;14.82;;;24.40;99.90;;;;;;5075894;28;20036;-68
2023/10/02 12:46:50;;;;;;;26.67;14.30;;;24.40;99.90;;;;;;5076692;28;20059;-66
2023/10/02 12:49:19;;;;;;;25.65;15.63;;;24.50;99.90;;;;;;5076654;28;20051;-67
2023/10/02 12:51:47;;;;;;;24.45;15.10;;;24.40;99.90;;;;;;5075844;28;20073;-67
2023/10/02 12:54:15;;;;;;;22.83;14.95;;;24.20;99.90;;;;;;5076620;28;20051;-67
2023/10/02 12:56:45;;;;;;;23.00;13.85;;;24.10;99.90;;;;;;5094359;28;20040;-67
2023/10/02 12:59:12;;;;;;;23.55;14.98;;;23.90;99.90;;;;;;5075665;28;20048;-67
2023/10/02 13:01:40;;;;;;;25.05;14.60;;;23.90;99.90;;;;;;5076541;28;20105;-67
2023/10/02 13:04:07;;;;;;;24.70;14.43;;;23.70;99.90;;;;;;5075949;28;20044;-67
2023/10/02 13:06:35;;;;;;;20.25;14.25;;;23.70;99.90;;;;;;5075838;28;20052;-67
2023/10/02 13:09:09;;;;;;;25.25;15.70;;;23.90;99.90;;;;;;5089744;28;20044;-67
2023/10/02 13:11:39;;;;;;;22.65;13.90;;;23.90;99.90;;;;;;5075460;28;20087;-67